Time;durP1;ratioP1;P1;durP2;ratioP2;P2;SDS_P1;SDS_P2;PMS_P1;PMS_P2;Temp;Humidity;BMP_temperature;BMP_pressure;BME280_temperature;BME280_humidity;BME280_pressure;Samples;Min_cycle;Max_cycle;Signal;HPM_P1;HPM_P2
2023/01/05 00:09:14;;;;;;;18.67;1.85;;;;;;;;;;6247793;22;1515818;-75
2023/01/05 01:35:36;;;;;;;14.43;2.00;;;;;;;;;;5021794;27;20418;-70
2023/01/05 01:38:07;;;;;;;11.95;2.10;;;;;;;;;;5031782;28;20056;-70
2023/01/05 01:40:37;;;;;;;12.95;2.17;;;;;;;;;;5002923;28;20072;-70
2023/01/05 01:43:07;;;;;;;13.63;2.10;;;;;;;;;;5014714;28;20040;-70
2023/01/05 01:45:37;;;;;;;15.30;2.53;;;;;;;;;;5038447;28;20052;-70
2023/01/05 01:48:04;;;;;;;11.88;2.28;;;;;;;;;;5027547;28;20064;-70
2023/01/05 01:50:34;;;;;;;14.40;2.35;;;;;;;;;;5040740;28;20056;-70
2023/01/05 01:53:03;;;;;;;18.85;2.60;;;;;;;;;;5021637;28;20045;-71
2023/01/05 01:55:31;;;;;;;;;;;;;;;;;;5015814;28;20072;-71
2023/01/05 01:57:59;;;;;;;16.25;2.28;;;;;;;;;;5016036;28;19924;-70
2023/01/05 02:00:26;;;;;;;16.27;2.60;;;;;;;;;;5013154;28;20059;-71
2023/01/05 02:02:54;;;;;;;10.48;2.30;;;;;;;;;;5015013;28;20257;-71
2023/01/05 02:05:22;;;;;;;12.68;1.90;;;;;;;;;;5016584;28;20131;-70
2023/01/05 02:07:52;;;;;;;13.63;2.30;;;;;;;;;;4969004;28;20084;-70
2023/01/05 02:10:20;;;;;;;21.65;2.28;;;;;;;;;;5025037;28;20057;-71
2023/01/05 02:12:53;;;;;;;11.50;2.13;;;;;;;;;;4999436;28;20042;-70
2023/01/05 02:15:25;;;;;;;14.70;2.83;;;;;;;;;;4992202;28;20433;-70
2023/01/05 02:18:01;;;;;;;18.98;2.55;;;;;;;;;;4975665;28;20060;-71
2023/01/05 02:20:32;;;;;;;16.38;2.78;;;;;;;;;;4977185;28;20049;-70
2023/01/05 02:23:17;;;;;;;15.75;2.13;;;;;;;;;;5006610;28;20092;-71
2023/01/05 02:25:55;;;;;;;14.60;2.70;;;;;;;;;;5022698;28;20049;-71
2023/01/05 02:28:28;;;;;;;19.63;2.42;;;;;;;;;;4993649;28;20109;-70
2023/01/05 02:31:00;;;;;;;13.43;2.03;;;;;;;;;;4988892;28;20045;-71
2023/01/05 02:33:36;;;;;;;14.95;1.88;;;;;;;;;;4965873;28;20050;-71
2023/01/05 02:36:06;;;;;;;13.90;2.28;;;;;;;;;;4987819;28;20081;-70
2023/01/05 02:38:35;;;;;;;13.40;2.40;;;;;;;;;;4978373;28;20053;-70
2023/01/05 02:41:13;;;;;;;13.55;2.17;;;;;;;;;;5011198;28;20053;-70
2023/01/05 02:43:43;;;;;;;16.48;1.90;;;;;;;;;;5027652;28;20049;-71
2023/01/05 02:46:15;;;;;;;11.15;2.03;;;;;;;;;;5017633;28;20140;-70
2023/01/05 02:48:42;;;;;;;11.15;2.33;;;;;;;;;;4969859;28;20064;-71
2023/01/05 02:53:57;;;;;;;15.07;2.17;;;;;;;;;;5325603;23;20070;-71
2023/01/05 02:56:30;;;;;;;17.80;2.42;;;;;;;;;;5025085;28;20049;-71
2023/01/05 02:58:58;;;;;;;13.85;2.08;;;;;;;;;;4982628;28;20107;-71
2023/01/05 03:01:30;;;;;;;14.32;2.47;;;;;;;;;;4995881;28;20104;-71
2023/01/05 03:03:59;;;;;;;10.38;1.95;;;;;;;;;;4924269;28;20045;-71
2023/01/05 03:06:27;;;;;;;16.17;2.13;;;;;;;;;;5004930;28;20078;-71
2023/01/05 03:08:56;;;;;;;13.15;1.88;;;;;;;;;;4980986;28;20065;-70
2023/01/05 03:14:12;;;;;;;11.88;1.95;;;;;;;;;;4965302;28;20049;-73
2023/01/05 03:16:44;;;;;;;12.05;2.17;;;;;;;;;;4970428;28;20065;-71
2023/01/05 03:35:53;;;;;;;13.85;1.95;;;;;;;;;;4983073;28;20111;-70
2023/01/05 03:38:23;;;;;;;15.38;3.20;;;;;;;;;;4999306;28;20119;-71
2023/01/05 03:40:51;;;;;;;16.55;2.95;;;;;;;;;;4979085;28;20058;-71
2023/01/05 03:43:19;;;;;;;14.55;1.88;;;;;;;;;;4983760;28;20101;-70
2023/01/05 03:45:46;;;;;;;;;;;;;;;;;;4990730;28;20061;-70
2023/01/05 03:48:17;;;;;;;12.32;2.05;;;;;;;;;;4988667;28;19971;-71
2023/01/05 03:50:44;;;;;;;10.95;1.80;;;;;;;;;;4993045;28;20053;-71
2023/01/05 03:53:10;;;;;;;15.32;2.63;;;;;;;;;;4999788;28;20058;-71
2023/01/05 03:55:37;;;;;;;15.98;2.13;;;;;;;;;;4951631;28;20248;-71
2023/01/05 03:58:05;;;;;;;13.60;2.35;;;;;;;;;;4999627;28;20053;-71
2023/01/05 04:00:32;;;;;;;11.63;1.63;;;;;;;;;;4986137;28;20104;-72
2023/01/05 04:03:02;;;;;;;11.70;1.88;;;;;;;;;;4970508;28;21384;-71
2023/01/05 04:05:37;;;;;;;16.33;1.83;;;;;;;;;;4982645;28;20045;-71
2023/01/05 04:08:04;;;;;;;16.25;2.20;;;;;;;;;;4999636;28;20128;-71
2023/01/05 04:10:37;;;;;;;12.07;2.47;;;;;;;;;;5000818;28;20072;-71
2023/01/05 04:13:05;;;;;;;13.45;1.77;;;;;;;;;;5014673;28;20053;-71
2023/01/05 04:15:32;;;;;;;16.98;2.97;;;;;;;;;;4965835;28;20201;-71
2023/01/05 04:18:00;;;;;;;15.27;2.10;;;;;;;;;;4987187;28;20141;-72
2023/01/05 04:20:35;;;;;;;7.25;1.60;;;;;;;;;;4980383;28;20123;-71
2023/01/05 04:23:02;;;;;;;14.95;2.10;;;;;;;;;;4962078;28;20077;-71
2023/01/05 04:25:29;;;;;;;14.82;2.58;;;;;;;;;;4920346;28;20081;-72
2023/01/05 04:27:55;;;;;;;14.05;1.92;;;;;;;;;;4922994;28;20066;-71
2023/01/05 04:30:28;;;;;;;22.60;2.88;;;;;;;;;;4937531;28;20110;-71
2023/01/05 04:32:55;;;;;;;12.77;1.92;;;;;;;;;;4889201;28;20066;-71
2023/01/05 04:35:24;;;;;;;13.27;2.20;;;;;;;;;;4849212;28;20069;-72
2023/01/05 04:37:52;;;;;;;10.30;1.75;;;;;;;;;;4927245;28;20054;-71
2023/01/05 04:40:23;;;;;;;15.07;2.08;;;;;;;;;;4941584;28;20141;-71
2023/01/05 04:42:56;;;;;;;10.32;1.77;;;;;;;;;;4981405;28;20054;-72
2023/01/05 04:45:27;;;;;;;12.98;2.10;;;;;;;;;;4983992;28;20137;-72
2023/01/05 04:47:54;;;;;;;9.13;1.63;;;;;;;;;;4984520;28;20061;-71
2023/01/05 04:50:20;;;;;;;11.85;1.88;;;;;;;;;;5011594;28;20065;-71
2023/01/05 04:52:47;;;;;;;12.85;2.13;;;;;;;;;;5003619;28;20058;-71
2023/01/05 04:55:16;;;;;;;17.15;2.00;;;;;;;;;;5008413;28;20096;-71
2023/01/05 04:57:44;;;;;;;7.78;1.73;;;;;;;;;;4945616;28;21205;-72
2023/01/05 05:03:07;;;;;;;18.08;2.25;;;;;;;;;;4879796;28;20066;-71
2023/01/05 05:05:34;;;;;;;11.70;1.63;;;;;;;;;;4902712;28;20054;-70
2023/01/05 05:08:00;;;;;;;13.50;1.85;;;;;;;;;;4994908;28;20061;-70
2023/01/05 05:10:32;;;;;;;16.63;2.40;;;;;;;;;;4978328;28;20092;-71
2023/01/05 05:12:58;;;;;;;9.18;1.65;;;;;;;;;;4987501;28;20068;-70
2023/01/05 05:15:28;;;;;;;16.83;1.88;;;;;;;;;;4989822;28;20135;-71
2023/01/05 05:17:54;;;;;;;17.25;2.10;;;;;;;;;;5004700;28;20053;-71
2023/01/05 05:20:21;;;;;;;10.93;2.20;;;;;;;;;;4979997;28;20155;-71
2023/01/05 05:22:49;;;;;;;14.63;1.88;;;;;;;;;;5001669;28;20107;-70
2023/01/05 05:25:15;;;;;;;10.68;2.00;;;;;;;;;;5014041;28;20173;-71
2023/01/05 05:27:44;;;;;;;19.02;2.00;;;;;;;;;;5012862;28;20101;-71
2023/01/05 05:30:14;;;;;;;8.32;1.70;;;;;;;;;;5021383;28;20057;-70
2023/01/05 05:32:51;;;;;;;17.63;1.88;;;;;;;;;;4978071;28;20065;-70
2023/01/05 05:35:28;;;;;;;8.00;1.83;;;;;;;;;;4967314;28;20108;-71
2023/01/05 05:37:56;;;;;;;9.10;1.77;;;;;;;;;;4985532;28;20073;-71
2023/01/05 05:40:27;;;;;;;15.53;2.00;;;;;;;;;;4945754;28;20104;-71
2023/01/05 05:42:55;;;;;;;14.00;1.88;;;;;;;;;;5006353;28;20073;-71
2023/01/05 05:45:24;;;;;;;10.70;1.58;;;;;;;;;;4924344;28;20058;-70
2023/01/05 05:47:51;;;;;;;12.40;1.80;;;;;;;;;;4997265;28;20508;-70
2023/01/05 05:50:23;;;;;;;15.90;2.20;;;;;;;;;;5000254;28;20054;-72
2023/01/05 05:52:50;;;;;;;13.73;1.80;;;;;;;;;;4988854;28;20053;-71
2023/01/05 05:55:20;;;;;;;17.52;2.72;;;;;;;;;;4966129;28;20247;-70
2023/01/05 05:57:49;;;;;;;11.25;1.88;;;;;;;;;;4983554;28;20057;-70
2023/01/05 06:00:21;;;;;;;10.13;2.50;;;;;;;;;;4955114;28;20071;-70
2023/01/05 06:02:50;;;;;;;11.55;1.88;;;;;;;;;;4987263;28;20100;-70
2023/01/05 06:05:21;;;;;;;13.38;2.20;;;;;;;;;;5006149;28;20053;-71
2023/01/05 06:07:51;;;;;;;14.95;2.17;;;;;;;;;;5000408;28;20144;-70
2023/01/05 06:10:20;;;;;;;12.35;1.90;;;;;;;;;;5001516;28;20144;-72
2023/01/05 06:12:46;;;;;;;11.82;1.35;;;;;;;;;;4999401;28;20045;-71
2023/01/05 06:15:13;;;;;;;9.57;1.85;;;;;;;;;;4985643;28;20144;-71
2023/01/05 06:17:45;;;;;;;16.73;1.90;;;;;;;;;;4978805;28;20089;-70
2023/01/05 06:20:15;;;;;;;11.63;2.05;;;;;;;;;;4998779;28;20062;-71
2023/01/05 06:22:45;;;;;;;12.50;2.35;;;;;;;;;;4984935;28;20049;-70
2023/01/05 06:25:14;;;;;;;13.82;2.40;;;;;;;;;;4973426;28;20056;-71
2023/01/05 06:27:46;;;;;;;13.15;1.98;;;;;;;;;;5016398;28;20061;-70
2023/01/05 06:30:13;;;;;;;10.25;1.45;;;;;;;;;;4984639;28;20072;-71
2023/01/05 06:32:40;;;;;;;8.93;1.75;;;;;;;;;;5004734;28;20148;-71
2023/01/05 06:35:19;;;;;;;;;;;;;;;;;;;;;
2023/01/05 06:37:46;;;;;;;14.70;2.00;;;;;;;;;;4969587;28;20061;-70
2023/01/05 06:40:16;;;;;;;11.25;1.80;;;;;;;;;;4977271;28;20072;-70
2023/01/05 06:42:48;;;;;;;12.32;1.73;;;;;;;;;;4963343;28;20165;-70
2023/01/05 06:45:20;;;;;;;14.75;2.03;;;;;;;;;;5007341;28;20053;-71
2023/01/05 06:47:50;;;;;;;8.70;1.77;;;;;;;;;;5019528;28;20057;-71
2023/01/05 06:50:31;;;;;;;13.55;1.88;;;;;;;;;;4993821;28;20057;-70
2023/01/05 06:53:00;;;;;;;10.75;2.33;;;;;;;;;;5011158;28;20503;-70
2023/01/05 06:55:27;;;;;;;23.92;2.33;;;;;;;;;;4990292;28;20045;-71
2023/01/05 06:57:54;;;;;;;15.27;2.53;;;;;;;;;;5004479;28;20231;-71
2023/01/05 07:00:23;;;;;;;16.27;2.03;;;;;;;;;;5013850;28;20068;-71
2023/01/05 07:02:49;;;;;;;11.00;2.30;;;;;;;;;;4982548;28;20062;-71
2023/01/05 07:05:17;;;;;;;12.05;1.88;;;;;;;;;;4926838;28;20057;-70
2023/01/05 07:07:48;;;;;;;16.83;2.38;;;;;;;;;;4971388;28;20045;-71
2023/01/05 07:10:23;;;;;;;;;;;;;;;;;;4987992;28;20154;-70
2023/01/05 07:12:51;;;;;;;11.63;1.90;;;;;;;;;;4995259;28;19925;-70
2023/01/05 07:15:27;;;;;;;18.25;2.78;;;;;;;;;;4981095;28;20091;-70
2023/01/05 07:17:53;;;;;;;16.30;1.73;;;;;;;;;;4987727;28;20136;-70
2023/01/05 07:20:27;;;;;;;16.38;1.98;;;;;;;;;;5018479;28;20072;-71
2023/01/05 07:23:01;;;;;;;17.98;2.63;;;;;;;;;;4984783;28;20062;-70
2023/01/05 07:25:30;;;;;;;10.27;1.60;;;;;;;;;;4963618;28;20047;-70
2023/01/05 07:28:05;;;;;;;12.98;1.77;;;;;;;;;;4997523;28;20049;-70
2023/01/05 07:30:40;;;;;;;14.98;2.05;;;;;;;;;;4991003;28;20085;-70
2023/01/05 07:33:09;;;;;;;13.50;1.70;;;;;;;;;;4983548;28;20053;-70
2023/01/05 07:35:36;;;;;;;18.23;2.25;;;;;;;;;;4957281;28;20078;-70
2023/01/05 07:38:12;;;;;;;14.13;2.28;;;;;;;;;;4994480;28;20078;-70
2023/01/05 07:40:43;;;;;;;16.40;2.42;;;;;;;;;;4994310;28;20046;-70
2023/01/05 07:43:10;;;;;;;;;;;;;;;;;;5031265;28;20050;-70
2023/01/05 07:45:39;;;;;;;13.82;1.88;;;;;;;;;;4960063;28;20967;-69
2023/01/05 07:48:08;;;;;;;9.07;1.40;;;;;;;;;;4969949;28;20354;-70
2023/01/05 07:50:39;;;;;;;17.00;2.17;;;;;;;;;;4990063;28;20189;-71
2023/01/05 07:53:22;;;;;;;14.35;2.00;;;;;;;;;;4977482;28;20050;-71
2023/01/05 07:56:20;;;;;;;9.13;1.52;;;;;;;;;;4960902;28;20054;-70
2023/01/05 07:58:51;;;;;;;13.57;2.15;;;;;;;;;;4973502;28;20057;-71
2023/01/05 08:01:24;;;;;;;;;;;;;;;;;;4974543;28;20062;-70
2023/01/05 08:03:56;;;;;;;12.60;1.48;;;;;;;;;;5000606;28;19929;-70
2023/01/05 08:06:24;;;;;;;10.18;2.00;;;;;;;;;;4965607;28;20049;-70
2023/01/05 08:08:52;;;;;;;11.47;1.90;;;;;;;;;;4978906;28;20072;-70
2023/01/05 08:11:20;;;;;;;13.00;2.13;;;;;;;;;;5014964;28;20052;-70
2023/01/05 08:14:01;;;;;;;9.88;1.92;;;;;;;;;;5015958;28;20053;-70
2023/01/05 08:16:28;;;;;;;9.68;1.90;;;;;;;;;;5002078;28;20049;-71
2023/01/05 08:18:59;;;;;;;12.98;2.17;;;;;;;;;;4997612;28;20083;-71
2023/01/05 08:21:42;;;;;;;9.90;1.60;;;;;;;;;;4991063;28;20104;-70
2023/01/05 08:24:20;;;;;;;20.20;2.47;;;;;;;;;;4979313;28;20053;-70
2023/01/05 08:29:45;;;;;;;13.45;1.90;;;;;;;;;;4998856;28;19921;-71
2023/01/05 08:32:12;;;;;;;15.18;1.80;;;;;;;;;;4971401;28;20060;-70
2023/01/05 08:35:16;;;;;;;10.40;1.67;;;;;;;;;;4959973;28;20132;-70
2023/01/05 08:37:51;;;;;;;13.40;2.35;;;;;;;;;;4974265;28;20054;-70
2023/01/05 08:40:30;;;;;;;15.18;2.20;;;;;;;;;;4980666;28;20090;-70
2023/01/05 08:42:57;;;;;;;12.85;2.30;;;;;;;;;;5002004;28;20084;-70
2023/01/05 08:45:32;;;;;;;15.27;2.33;;;;;;;;;;4945555;28;20079;-71
2023/01/05 08:48:02;;;;;;;13.70;2.13;;;;;;;;;;5029741;28;20076;-71
2023/01/05 08:50:42;;;;;;;17.02;2.55;;;;;;;;;;4993740;28;20050;-71
2023/01/05 08:53:12;;;;;;;14.35;1.98;;;;;;;;;;4984190;28;20053;-70
2023/01/05 08:55:48;;;;;;;15.60;2.72;;;;;;;;;;4962736;28;20041;-70
2023/01/05 08:58:20;;;;;;;8.35;1.75;;;;;;;;;;4981280;28;20143;-70
2023/01/05 09:00:57;;;;;;;11.63;2.22;;;;;;;;;;4975811;28;20045;-70
2023/01/05 09:03:34;;;;;;;23.02;2.67;;;;;;;;;;5012470;28;20103;-70
2023/01/05 09:06:10;;;;;;;20.52;2.85;;;;;;;;;;4959003;28;20147;-70
2023/01/05 09:08:46;;;;;;;13.90;2.67;;;;;;;;;;4979694;28;20061;-70
2023/01/05 09:11:22;;;;;;;20.75;2.78;;;;;;;;;;4977601;28;20062;-71
2023/01/05 09:14:05;;;;;;;14.70;2.50;;;;;;;;;;4961446;28;20092;-70
2023/01/05 09:19:51;;;;;;;15.52;2.47;;;;;;;;;;4948258;28;20054;-70
2023/01/05 09:22:30;;;;;;;15.73;2.60;;;;;;;;;;4969416;28;20072;-72
2023/01/05 09:25:09;;;;;;;20.27;3.15;;;;;;;;;;4959205;28;20082;-70
2023/01/05 09:27:41;;;;;;;23.65;2.42;;;;;;;;;;4963403;28;20049;-70
2023/01/05 09:30:19;;;;;;;18.77;2.90;;;;;;;;;;4963785;28;20065;-71
2023/01/05 09:33:17;;;;;;;19.48;2.67;;;;;;;;;;4996141;28;20249;-70
2023/01/05 09:36:07;;;;;;;14.73;2.17;;;;;;;;;;4955953;28;20061;-71
2023/01/05 09:41:47;;;;;;;13.13;2.47;;;;;;;;;;4985219;28;20054;-70
2023/01/05 09:44:31;;;;;;;17.58;2.35;;;;;;;;;;4979145;28;20197;-70
2023/01/05 09:47:00;;;;;;;14.82;2.45;;;;;;;;;;4917538;28;20046;-70
2023/01/05 09:49:32;;;;;;;12.10;2.50;;;;;;;;;;4982118;28;20120;-70
2023/01/05 09:52:12;;;;;;;11.63;2.10;;;;;;;;;;5003829;28;20053;-70
2023/01/05 09:54:43;;;;;;;13.32;2.42;;;;;;;;;;4961901;28;20305;-71
2023/01/05 09:57:24;;;;;;;20.45;2.75;;;;;;;;;;4979228;28;20049;-71
2023/01/05 10:03:10;;;;;;;16.27;2.75;;;;;;;;;;4983258;28;20049;-70
2023/01/05 10:08:35;;;;;;;14.43;2.38;;;;;;;;;;5000585;28;20060;-70
2023/01/05 10:14:11;;;;;;;14.43;2.35;;;;;;;;;;5003064;28;20095;-70
2023/01/05 10:16:45;;;;;;;16.30;2.38;;;;;;;;;;4950556;28;20108;-70
2023/01/05 10:19:51;;;;;;;21.60;2.83;;;;;;;;;;4966789;28;20127;-70
2023/01/05 10:22:55;;;;;;;;;;;;;;;;;;;;;
2023/01/05 10:25:41;;;;;;;15.07;2.55;;;;;;;;;;4965242;28;20053;-71
2023/01/05 10:28:17;;;;;;;16.52;2.85;;;;;;;;;;4960713;28;20068;-71
2023/01/05 10:30:49;;;;;;;15.45;2.70;;;;;;;;;;4987067;28;20053;-71
2023/01/05 10:33:34;;;;;;;21.65;3.50;;;;;;;;;;4979604;28;22545;-70
2023/01/05 10:36:13;;;;;;;17.25;2.95;;;;;;;;;;4924579;28;20057;-70
2023/01/05 10:38:52;;;;;;;16.80;2.65;;;;;;;;;;4967080;28;20053;-70
2023/01/05 10:41:39;;;;;;;16.25;2.90;;;;;;;;;;4975147;28;20050;-70
2023/01/05 10:44:26;;;;;;;17.48;2.90;;;;;;;;;;4995596;28;20057;-70
2023/01/05 10:46:54;;;;;;;20.83;2.85;;;;;;;;;;4935501;28;20053;-70
2023/01/05 10:49:35;;;;;;;17.00;3.53;;;;;;;;;;4962548;28;20049;-70
2023/01/05 10:52:14;;;;;;;13.95;2.20;;;;;;;;;;4983984;28;20196;-70
2023/01/05 10:55:01;;;;;;;14.02;2.58;;;;;;;;;;4922504;28;20307;-71
2023/01/05 10:57:53;;;;;;;13.50;2.03;;;;;;;;;;4944030;28;20057;-71
2023/01/05 11:00:41;;;;;;;11.05;2.05;;;;;;;;;;4974945;28;20069;-71
2023/01/05 11:03:19;;;;;;;16.00;2.20;;;;;;;;;;5008747;28;20168;-71
2023/01/05 11:05:57;;;;;;;22.33;2.80;;;;;;;;;;4929655;28;20063;-71
2023/01/05 11:08:43;;;;;;;14.77;2.25;;;;;;;;;;4981600;28;20053;-71
2023/01/05 11:17:16;;;;;;;23.10;2.75;;;;;;;;;;4904403;28;20078;-71
2023/01/05 11:19:53;;;;;;;18.95;3.25;;;;;;;;;;4916233;28;20059;-72
2023/01/05 11:22:36;;;;;;;19.17;3.17;;;;;;;;;;4978738;28;20138;-71
2023/01/05 11:25:40;;;;;;;14.18;2.80;;;;;;;;;;4961898;28;20140;-72
2023/01/05 11:28:14;;;;;;;18.65;2.80;;;;;;;;;;4972776;28;20048;-71
2023/01/05 11:31:15;;;;;;;;;;;;;;;;;;;;;
2023/01/05 11:34:08;;;;;;;13.70;2.30;;;;;;;;;;4960155;28;20077;-71
2023/01/05 11:39:53;;;;;;;12.32;2.40;;;;;;;;;;4962984;28;20180;-71
2023/01/05 11:42:45;;;;;;;21.90;2.70;;;;;;;;;;4990367;28;20057;-71
2023/01/05 11:45:19;;;;;;;17.92;2.40;;;;;;;;;;5014843;28;20096;-71
2023/01/05 11:48:05;;;;;;;16.90;2.50;;;;;;;;;;4935582;28;20050;-71
2023/01/05 11:50:55;;;;;;;23.88;2.58;;;;;;;;;;4980979;28;20130;-71
2023/01/05 11:53:31;;;;;;;17.30;2.97;;;;;;;;;;4990727;28;20053;-71
2023/01/05 11:56:21;;;;;;;19.60;3.05;;;;;;;;;;4971084;28;20057;-71
2023/01/05 11:58:53;;;;;;;18.52;2.58;;;;;;;;;;5007925;28;20053;-71
2023/01/05 12:04:53;;;;;;;19.48;2.88;;;;;;;;;;4983070;28;20053;-71
2023/01/05 12:10:46;;;;;;;18.25;2.85;;;;;;;;;;4998305;28;20053;-71
2023/01/05 12:13:46;;;;;;;14.80;2.88;;;;;;;;;;4985225;28;20069;-71
2023/01/05 12:16:59;;;;;;;17.48;3.25;;;;;;;;;;4953432;28;20172;-71
2023/01/05 12:19:51;;;;;;;19.17;2.70;;;;;;;;;;4949841;28;20068;-71
2023/01/05 12:25:34;;;;;;;20.67;2.42;;;;;;;;;;4952706;28;20402;-71
2023/01/05 12:28:33;;;;;;;21.65;2.97;;;;;;;;;;4968709;28;20072;-71
2023/01/05 12:31:31;;;;;;;18.67;3.28;;;;;;;;;;4985331;28;20053;-71
2023/01/05 12:34:28;;;;;;;16.63;2.97;;;;;;;;;;4970625;28;20096;-70
2023/01/05 12:37:19;;;;;;;;;;;;;;;;;;;;;
2023/01/05 12:40:09;;;;;;;18.52;2.47;;;;;;;;;;4997212;28;20049;-70
2023/01/05 12:42:56;;;;;;;17.33;2.70;;;;;;;;;;4997657;28;20061;-71
2023/01/05 12:45:45;;;;;;;17.45;2.92;;;;;;;;;;4988021;28;20158;-71
2023/01/05 12:48:25;;;;;;;22.00;3.10;;;;;;;;;;4961448;28;20140;-71
2023/01/05 12:50:57;;;;;;;14.43;2.67;;;;;;;;;;4930914;28;20081;-71
2023/01/05 12:53:49;;;;;;;12.15;2.03;;;;;;;;;;4963690;28;20050;-71
2023/01/05 12:56:24;;;;;;;16.63;2.70;;;;;;;;;;4976731;28;20053;-71
2023/01/05 12:58:57;;;;;;;19.73;2.60;;;;;;;;;;4965990;28;20054;-70
2023/01/05 13:01:28;;;;;;;18.63;2.50;;;;;;;;;;4961144;28;20049;-71
2023/01/05 13:04:25;;;;;;;19.05;3.25;;;;;;;;;;4948384;28;20062;-70
2023/01/05 13:07:00;;;;;;;20.10;3.22;;;;;;;;;;4941257;28;20079;-70
2023/01/05 13:09:30;;;;;;;26.67;3.08;;;;;;;;;;4931947;28;20127;-71
2023/01/05 13:12:11;;;;;;;19.77;2.85;;;;;;;;;;4975294;28;20050;-70
2023/01/05 13:15:11;;;;;;;18.70;2.50;;;;;;;;;;4965785;28;20077;-70
2023/01/05 13:17:41;;;;;;;16.67;2.67;;;;;;;;;;4966227;28;20054;-70
2023/01/05 13:20:21;;;;;;;21.65;3.20;;;;;;;;;;4989977;28;20057;-70
2023/01/05 13:23:05;;;;;;;12.90;2.40;;;;;;;;;;4987739;28;20057;-71
2023/01/05 13:25:57;;;;;;;17.40;2.88;;;;;;;;;;4990285;28;20072;-70
2023/01/05 13:31:38;;;;;;;16.25;2.88;;;;;;;;;;4945643;28;20271;-71
2023/01/05 13:34:33;;;;;;;11.63;2.17;;;;;;;;;;4960085;28;20050;-70
2023/01/05 13:37:29;;;;;;;13.20;2.45;;;;;;;;;;4925349;28;20135;-71
2023/01/05 13:40:27;;;;;;;14.43;2.78;;;;;;;;;;4957645;28;20148;-71
2023/01/05 13:43:34;;;;;;;17.73;2.58;;;;;;;;;;4949673;28;20050;-70
2023/01/05 13:46:31;;;;;;;15.43;2.65;;;;;;;;;;4955499;28;20049;-70
2023/01/05 13:49:14;;;;;;;13.07;3.13;;;;;;;;;;4927547;28;20063;-71
2023/01/05 13:52:02;;;;;;;17.67;2.47;;;;;;;;;;4986651;28;20049;-70
2023/01/05 14:04:10;;;;;;;14.07;2.63;;;;;;;;;;4925996;28;20050;-71
2023/01/05 14:06:51;;;;;;;15.75;2.53;;;;;;;;;;4923320;28;20173;-70
2023/01/05 14:09:29;;;;;;;19.17;2.72;;;;;;;;;;4934868;28;20252;-71
2023/01/05 14:12:15;;;;;;;19.05;3.03;;;;;;;;;;4948097;28;20057;-70
2023/01/05 14:15:08;;;;;;;16.95;3.08;;;;;;;;;;4968257;28;20085;-71
2023/01/05 14:17:56;;;;;;;18.02;2.65;;;;;;;;;;4963525;28;21017;-71
2023/01/05 14:20:45;;;;;;;16.75;3.00;;;;;;;;;;4922118;28;20093;-70
2023/01/05 14:23:34;;;;;;;17.50;2.25;;;;;;;;;;4949584;28;20057;-71
2023/01/05 14:26:23;;;;;;;18.77;2.53;;;;;;;;;;4966842;28;20062;-70
2023/01/05 14:29:05;;;;;;;11.45;2.75;;;;;;;;;;4984610;28;20080;-70
2023/01/05 14:31:54;;;;;;;19.02;2.72;;;;;;;;;;5020691;28;20057;-70
2023/01/05 14:34:29;;;;;;;16.48;2.28;;;;;;;;;;4997715;28;20096;-71
2023/01/05 14:37:10;;;;;;;11.07;2.50;;;;;;;;;;5019968;28;20061;-70
2023/01/05 14:39:58;;;;;;;11.80;2.20;;;;;;;;;;4950026;28;20058;-70
2023/01/05 14:42:38;;;;;;;18.15;3.15;;;;;;;;;;4970334;28;20053;-70
2023/01/05 14:45:22;;;;;;;14.02;2.13;;;;;;;;;;5001610;28;20057;-70
2023/01/05 14:48:06;;;;;;;16.17;2.70;;;;;;;;;;4982615;28;20057;-71
2023/01/05 14:50:35;;;;;;;10.80;1.95;;;;;;;;;;4991566;28;20065;-70
2023/01/05 14:53:32;;;;;;;17.58;2.45;;;;;;;;;;4965533;28;20058;-70
2023/01/05 14:56:16;;;;;;;14.73;2.65;;;;;;;;;;4993242;28;20064;-70
2023/01/05 14:58:49;;;;;;;13.52;2.75;;;;;;;;;;4953754;28;20050;-70
2023/01/05 15:01:26;;;;;;;14.10;2.42;;;;;;;;;;4982028;28;20053;-71
2023/01/05 15:04:15;;;;;;;;;;;;;;;;;;;;;
2023/01/05 15:07:00;;;;;;;14.80;2.88;;;;;;;;;;5029761;28;20059;-71
2023/01/05 15:09:37;;;;;;;9.98;2.30;;;;;;;;;;4959005;28;20049;-70
2023/01/05 15:12:15;;;;;;;14.75;2.58;;;;;;;;;;4989598;28;20076;-70
2023/01/05 15:14:56;;;;;;;20.75;2.30;;;;;;;;;;5019093;28;20076;-70
2023/01/05 15:17:44;;;;;;;16.73;2.70;;;;;;;;;;4997043;28;20049;-70
2023/01/05 15:20:52;;;;;;;17.98;2.67;;;;;;;;;;4996786;28;20162;-72
2023/01/05 15:23:46;;;;;;;15.90;2.63;;;;;;;;;;4974405;28;20141;-70
2023/01/05 15:26:26;;;;;;;19.40;2.55;;;;;;;;;;5017862;28;20092;-70
2023/01/05 15:32:03;;;;;;;19.58;2.58;;;;;;;;;;5009998;28;20140;-70
2023/01/05 15:35:01;;;;;;;13.88;2.65;;;;;;;;;;5007994;28;20045;-70
2023/01/05 15:38:02;;;;;;;15.43;2.88;;;;;;;;;;4949214;28;20067;-70
2023/01/05 15:40:35;;;;;;;13.30;2.28;;;;;;;;;;4991221;28;20061;-70
2023/01/05 15:43:04;;;;;;;24.90;3.47;;;;;;;;;;5017501;28;20054;-70
2023/01/05 15:45:41;;;;;;;17.55;3.13;;;;;;;;;;4987689;28;20061;-70
2023/01/05 15:48:15;;;;;;;12.63;2.50;;;;;;;;;;4995438;28;20061;-70
2023/01/05 15:50:50;;;;;;;21.27;3.00;;;;;;;;;;5008929;28;20061;-70
2023/01/05 15:53:24;;;;;;;25.67;3.08;;;;;;;;;;4980404;28;20157;-71
2023/01/05 15:56:04;;;;;;;19.55;3.15;;;;;;;;;;5011562;28;20064;-71
2023/01/05 15:58:44;;;;;;;16.92;3.22;;;;;;;;;;5000345;28;20049;-70
2023/01/05 16:01:14;;;;;;;15.60;3.08;;;;;;;;;;4985777;28;20046;-70
2023/01/05 16:03:47;;;;;;;21.38;2.70;;;;;;;;;;5022249;28;20076;-70
2023/01/05 16:06:16;;;;;;;18.35;2.60;;;;;;;;;;4990257;28;20135;-70
2023/01/05 16:08:46;;;;;;;15.57;2.88;;;;;;;;;;4950960;28;20055;-70
2023/01/05 16:11:27;;;;;;;18.08;2.40;;;;;;;;;;4947847;28;20111;-70
2023/01/05 16:13:56;;;;;;;16.85;2.80;;;;;;;;;;4994666;28;20057;-70
2023/01/05 16:16:29;;;;;;;13.75;2.22;;;;;;;;;;4992921;28;20049;-71
2023/01/05 16:18:59;;;;;;;16.08;2.70;;;;;;;;;;4944779;28;20063;-70
2023/01/05 16:21:30;;;;;;;20.88;3.20;;;;;;;;;;4983154;28;20052;-70
2023/01/05 16:23:58;;;;;;;15.32;2.92;;;;;;;;;;4980221;28;20049;-70
2023/01/05 16:26:37;;;;;;;11.85;2.78;;;;;;;;;;5004737;28;20052;-70
2023/01/05 16:29:21;;;;;;;14.80;2.10;;;;;;;;;;4959705;28;20061;-70
2023/01/05 16:31:55;;;;;;;9.95;2.22;;;;;;;;;;4994546;28;20049;-70
2023/01/05 16:34:26;;;;;;;14.63;2.75;;;;;;;;;;5027656;28;20064;-70
2023/01/05 16:37:03;;;;;;;17.33;2.88;;;;;;;;;;5003581;28;20061;-70
2023/01/05 16:39:35;;;;;;;13.93;2.58;;;;;;;;;;4993671;28;20057;-70
2023/01/05 16:44:58;;;;;;;14.35;2.00;;;;;;;;;;5029679;28;20065;-71
2023/01/05 16:47:32;;;;;;;17.55;2.50;;;;;;;;;;4970635;28;20073;-70
2023/01/05 16:49:59;;;;;;;20.48;2.53;;;;;;;;;;4981701;28;20135;-70
2023/01/05 16:52:26;;;;;;;11.60;2.28;;;;;;;;;;5000627;28;20096;-73
2023/01/05 17:35:05;;;;;;;16.10;3.08;;;;;;;;;;6170267;22;1419076;-70
2023/01/05 17:37:33;;;;;;;12.60;2.65;;;;;;;;;;6131937;23;20031;-71
2023/01/05 17:40:00;;;;;;;14.85;2.80;;;;;;;;;;6131485;23;20021;-71
2023/01/05 17:42:42;;;;;;;16.35;2.75;;;;;;;;;;6152811;23;20021;-70
2023/01/05 17:45:10;;;;;;;15.75;3.15;;;;;;;;;;6111875;23;20029;-71
2023/01/05 17:47:38;;;;;;;;;;;;;;;;;;6071985;23;20116;-70
2023/01/05 17:50:38;;;;;;;11.75;3.10;;;;;;;;;;6055093;23;19920;-70
2023/01/05 17:53:30;;;;;;;13.27;3.37;;;;;;;;;;6065583;23;20025;-71
2023/01/05 17:56:16;;;;;;;11.93;3.38;;;;;;;;;;6108106;23;20470;-70
2023/01/05 19:14:57;;;;;;;;;;;;;;;;;;;;;
2023/01/05 19:44:20;;;;;;;16.17;5.07;;;;;;;;;;6053654;22;2040885;-71
2023/01/05 19:46:52;;;;;;;12.02;4.75;;;;;;;;;;6032450;23;20029;-71
2023/01/05 19:49:19;;;;;;;10.73;4.28;;;;;;;;;;6018736;23;20030;-72
2023/01/05 19:51:46;;;;;;;11.98;5.03;;;;;;;;;;6035426;23;20036;-70
2023/01/05 19:54:14;;;;;;;13.50;4.85;;;;;;;;;;6124431;23;20017;-70
2023/01/05 19:56:49;;;;;;;13.35;5.25;;;;;;;;;;6100247;23;20024;-71
2023/01/05 19:59:31;;;;;;;13.38;4.85;;;;;;;;;;6128707;23;20036;-71
2023/01/05 20:02:15;;;;;;;15.05;4.60;;;;;;;;;;6042400;23;20038;-71
2023/01/05 20:04:53;;;;;;;13.05;5.00;;;;;;;;;;6012712;23;20031;-71
2023/01/05 20:26:17;;;;;;;16.33;5.93;;;;;;;;;;5832340;22;10834589;-71
2023/01/05 20:28:55;;;;;;;13.77;5.75;;;;;;;;;;6127966;23;20043;-71
2023/01/05 22:00:50;;;;;;;9.40;4.85;;;;;;;;;;6122918;22;1585156;-70
2023/01/05 22:03:17;;;;;;;12.05;5.40;;;;;;;;;;6083569;23;20017;-70
2023/01/05 22:05:58;;;;;;;10.52;4.70;;;;;;;;;;6061126;23;20021;-70
2023/01/05 22:08:36;;;;;;;13.00;4.97;;;;;;;;;;6058564;23;20026;-71
2023/01/05 22:11:28;;;;;;;14.65;4.90;;;;;;;;;;5971162;23;20022;-70
2023/01/05 22:13:59;;;;;;;8.38;4.50;;;;;;;;;;5962080;23;20018;-70
2023/01/05 22:17:06;;;;;;;10.70;4.47;;;;;;;;;;6071566;23;20036;-70
2023/01/05 22:19:59;;;;;;;10.40;4.32;;;;;;;;;;5996482;23;20036;-70
2023/01/05 23:12:51;;;;;;;8.10;3.05;;;;;;;;;;5979974;23;20029;-70
2023/01/05 23:15:21;;;;;;;5.75;2.70;;;;;;;;;;6132253;23;20021;-71
2023/01/05 23:17:48;;;;;;;6.88;2.85;;;;;;;;;;6092856;23;20026;-71
2023/01/05 23:20:16;;;;;;;7.75;2.88;;;;;;;;;;6084436;23;20030;-70
2023/01/05 23:22:43;;;;;;;8.20;2.97;;;;;;;;;;6068720;23;20112;-70
2023/01/05 23:25:10;;;;;;;9.75;3.03;;;;;;;;;;6096067;23;20020;-71